Nearby METAR Reports

 

LELL - Sabadell, Spain
Distance from station: E 18km
Mise à jour: 21/10/2018 12:00
clair
clair
 Wind from ESE
Vent: ESE 2 km/h
Température: 22°C
Point de rosée: 17°C
Humidité: 73%
Baromètre: 1022 hPa
Résumé: clair
Visibility: greater than 10 km
2018/10/21 10:00 LELL 211000Z 12001KT CAVOK 22/17 Q1022
LEBL - Barcelona Airpor, Spain
Distance from station: SSE 33km
Mise à jour: 21/10/2018 12:00
clair
clair
 Wind from NO
Vent: NO 9 km/h
Température: 22°C
Point de rosée: 16°C
Humidité: 69%
Baromètre: 1022 hPa
Résumé: clair
Visibility: greater than 10 km
2018/10/21 10:00 LEBL 211000Z 31005KT 250V360 CAVOK 22/16 Q1022 NOSIG
LERS - Reus (civ/Mil), Spain
Distance from station: SO 75km
Mise à jour: 21/10/2018 12:00
Few Clouds
Few Clouds
 Wind from SSO
Vent: SSO 7 km/h
Température: 22°C
Point de rosée: 14°C
Humidité: 61%
Baromètre: 1022 hPa
Clouds: Few Clouds
Visibility: 10 km
Cloud details: Few Clouds 1067 m
2018/10/21 10:00 LERS 211000Z 20004KT 160V260 9999 FEW035 22/14 Q1022
 
LEGE - Gerona/Costa Bra, Spain
Distance from station: ENE 83km
Mise à jour: 21/10/2018 12:00
clair
clair
 Wind from varies
Vent: varies 4 km/h
Température: 20°C
Point de rosée: 15°C
Humidité: 73%
Baromètre: 1022 hPa
Résumé: clair
Visibility: greater than 10 km
2018/10/21 10:00 LEGE 211000Z VRB02KT CAVOK 20/15 Q1022
LFMP - Perpignan/Rivesa, France
Distance from station: NNE 155km
Mise à jour: 21/10/2018 12:00
clair
clair
 Wind from E
Vent: E 9 km/h
Température: 23°C
Point de rosée: 15°C
Humidité: 61%
Baromètre: 1021 hPa
Résumé: clair
Visibility: greater than 10 km
2018/10/21 10:00 LFMP 211000Z AUTO 09005KT 030V190 CAVOK 23/15 Q1021 BECMG 32010KT
LFMK - Carcassonne/Salv, France
Distance from station: N 191km
Mise à jour: 21/10/2018 12:00
Few Clouds
Few Clouds
 Wind from O
Vent: O 19 km/h
Température: 18°C
Point de rosée: 14°C
Humidité: 78%
Baromètre: 1023 hPa
Clouds: Few Clouds
Visibility: 10 km
Cloud details: Few Clouds 427 m
2018/10/21 10:00 LFMK 211000Z AUTO 26010KT 220V290 9999 FEW014 18/14 Q1023 TEMPO BKN010
 
LEHC - Huesca-Pirineos, Spain
Distance from station: ONO 193km
Mise à jour: 21/10/2018 12:00
Few Clouds
Few Clouds
 Wind from OSO
Vent: OSO 15 km/h
Température: 19°C
Point de rosée: 14°C
Humidité: 73%
Baromètre: 1024 hPa
Clouds: Few Clouds
Visibility: 10 km
Cloud details: Few Clouds 975 m
2018/10/21 10:00 LEHC 211000Z 25008KT 210V290 9999 FEW032 19/14 Q1024
LFMU - Beziers/Vias, France
Distance from station: NNE 232km
Mise à jour: 21/10/2018 12:00
clair
clair
 Wind from OSO
Vent: OSO 7 km/h
Température: 19°C
Point de rosée: 13°C
Humidité: 68%
Baromètre: 1021 hPa
Résumé: clair
Visibility: greater than 10 km
2018/10/21 10:00 LFMU 211000Z AUTO 25004KT 210V300 CAVOK 19/13 Q1021 NOSIG
LEPA - Palma De Mallorc, Spain
Distance from station: SSE 233km
Mise à jour: 21/10/2018 12:00
partiellement nuageux
partiellement nuageux
 Wind from E
Vent: E 7 km/h
Température: 23°C
Point de rosée: 20°C
Humidité: 83%
Baromètre: 1021 hPa
Clouds: partiellement nuageux
Visibility: 10 km
Cloud details: partiellement nuageux 457 m
2018/10/21 10:00 LEPA 211000Z 08004KT 050V110 9999 SCT015 23/20 Q1021 NOSIG
 
LFBO - Toulouse/Blagnac, France
Distance from station: N 236km
Mise à jour: 21/10/2018 12:00
Mist, couvert
Mist, couvert
 Wind from varies
Vent: varies 2 km/h
Température: 15°C
Point de rosée: 14°C
Humidité: 94%
Baromètre: 1024 hPa
Résumé: Mist
Clouds: couvert
Visibility: 5 km
Cloud details: couvert 91 m
2018/10/21 10:00 LFBO 211000Z AUTO VRB01KT 5000 BR OVC003 15/14 Q1024 BECMG NSC
LFBT - Tarbes/Ossun, France
Distance from station: NO 239km
Mise à jour: 21/10/2018 12:00
clair
clair
 Wind from varies
Vent: varies 4 km/h
Température: 18°C
Point de rosée: 13°C
Humidité: 73%
Baromètre: 1024 hPa
Résumé: clair
Visibility: greater than 10 km
2018/10/21 10:00 LFBT 211000Z AUTO VRB02KT CAVOK 18/13 Q1024 NOSIG
LEZG - Zaragoza (mil/Ci, Spain
Distance from station: O 242km
Mise à jour: 21/10/2018 12:00
partiellement nuageux
partiellement nuageux
 Wind from NO
Vent: NO 9 km/h
Température: 18°C
Point de rosée: 15°C
Humidité: 83%
Baromètre: 1024 hPa
Clouds: partiellement nuageux
Visibility: 9 km
2018/10/21 10:00 LEZG 211000Z 32005KT 280V350 9000 NSC 18/15 Q1024